createdAt,value
2019-04-16T00:00:15.342Z,24.33
2019-04-16T00:02:53.062Z,22.80
2019-04-16T00:05:32.101Z,24.83
2019-04-16T00:08:26.455Z,23.60
2019-04-16T00:11:11.488Z,25.90
2019-04-16T00:13:50.867Z,23.50
2019-04-16T00:16:22.567Z,23.70
2019-04-16T00:18:58.032Z,20.77
2019-04-16T00:21:46.553Z,18.57
2019-04-16T00:24:28.819Z,21.48
2019-04-16T00:27:00.727Z,22.62
2019-04-16T00:29:32.992Z,23.10
2019-04-16T00:32:15.265Z,20.33
2019-04-16T00:34:47.028Z,21.47
2019-04-16T00:37:21.344Z,19.23
2019-04-16T00:39:55.577Z,19.63
2019-04-16T00:42:25.855Z,21.23
2019-04-16T00:44:57.586Z,19.00
2019-04-16T00:47:29.442Z,18.92
2019-04-16T00:50:01.155Z,19.15
2019-04-16T00:52:36.649Z,18.10
2019-04-16T00:55:06.989Z,19.17
2019-04-16T00:57:38.679Z,25.40
2019-04-16T01:00:11.539Z,21.07
2019-04-16T01:02:43.124Z,18.90
2019-04-16T01:05:14.784Z,19.32
2019-04-16T01:07:46.599Z,19.52
2019-04-16T01:10:18.548Z,19.02
2019-04-16T01:12:50.601Z,20.17
2019-04-16T01:15:22.582Z,19.60
2019-04-16T01:17:54.115Z,14.70
2019-04-16T01:20:26.917Z,15.28
2019-04-16T01:22:58.599Z,15.95
2019-04-16T01:25:31.262Z,17.92
2019-04-16T01:28:04.775Z,16.32
2019-04-16T01:30:46.891Z,16.02
2019-04-16T01:33:25.284Z,19.42
2019-04-16T01:36:06.681Z,18.27
2019-04-16T01:39:14.731Z,18.87
2019-04-16T01:41:33.589Z,17.35
2019-04-16T01:44:05.359Z,18.15
2019-04-16T01:46:37.125Z,17.95
2019-04-16T01:49:10.250Z,16.70
2019-04-16T01:51:44.647Z,16.50
2019-04-16T01:54:16.064Z,16.32
2019-04-16T01:56:48.079Z,17.20
2019-04-16T01:59:19.980Z,15.65
2019-04-16T02:01:51.632Z,14.70
2019-04-16T02:04:24.246Z,14.80
2019-04-16T02:06:57.313Z,15.10
2019-04-16T02:09:34.152Z,17.27
2019-04-16T02:12:02.846Z,16.43
2019-04-16T02:14:34.504Z,17.95
2019-04-16T02:17:06.480Z,17.10
2019-04-16T02:19:38.084Z,18.87
2019-04-16T02:22:12.572Z,18.00
2019-04-16T02:24:43.212Z,17.05
2019-04-16T02:27:14.915Z,16.57
2019-04-16T02:29:49.449Z,16.80
2019-04-16T02:32:21.311Z,18.73
2019-04-16T02:35:02.762Z,17.12
2019-04-16T02:37:36.588Z,19.00
2019-04-16T02:40:18.305Z,19.12
2019-04-16T02:42:48.190Z,17.80
2019-04-16T02:45:24.576Z,18.80
2019-04-16T02:47:56.524Z,19.77
2019-04-16T02:50:40.191Z,18.95
2019-04-16T02:53:29.489Z,16.82
2019-04-16T02:56:38.667Z,19.42
2019-04-16T02:59:29.574Z,22.73
2019-04-16T03:02:22.693Z,24.30
2019-04-16T03:04:59.264Z,26.37
2019-04-16T03:07:32.758Z,22.67
2019-04-16T03:10:04.884Z,21.95
2019-04-16T03:12:36.759Z,20.90
2019-04-16T03:15:08.775Z,19.55
2019-04-16T03:17:44.638Z,19.52
2019-04-16T03:20:20.940Z,17.30
2019-04-16T03:22:54.452Z,17.52
2019-04-16T03:25:26.321Z,17.80
2019-04-16T03:27:58.116Z,20.32
2019-04-16T03:30:29.893Z,33.50
2019-04-16T03:33:10.400Z,19.95
2019-04-16T03:35:35.249Z,15.63
2019-04-16T03:38:06.839Z,18.73
2019-04-16T03:40:38.891Z,19.10
2019-04-16T03:43:10.571Z,19.07
2019-04-16T03:45:42.327Z,22.07
2019-04-16T03:48:14.143Z,20.23
2019-04-16T03:50:46.202Z,18.85
2019-04-16T03:53:18.467Z,21.10
2019-04-16T03:55:50.340Z,25.32
2019-04-16T03:58:22.121Z,20.25
2019-04-16T04:00:54.058Z,23.95
2019-04-16T04:03:26.822Z,19.42
2019-04-16T04:05:58.866Z,19.98
2019-04-16T04:08:30.582Z,24.55
2019-04-16T04:11:02.237Z,19.82
2019-04-16T04:13:34.234Z,19.60
2019-04-16T04:16:06.343Z,16.77
2019-04-16T04:18:42.943Z,17.55
2019-04-16T04:21:11.647Z,18.55
2019-04-16T04:23:43.736Z,18.25
2019-04-16T04:26:15.873Z,17.30
2019-04-16T04:28:53.824Z,20.08
2019-04-16T04:31:25.956Z,19.05
2019-04-16T04:34:09.967Z,18.12
2019-04-16T04:36:41.335Z,15.03
2019-04-16T04:39:15.675Z,14.93
2019-04-16T04:41:46.844Z,17.05
2019-04-16T04:44:21.791Z,19.60
2019-04-16T04:46:53.880Z,19.00
2019-04-16T04:49:32.478Z,14.05
2019-04-16T04:52:04.305Z,16.52
2019-04-16T04:54:42.203Z,16.05
2019-04-16T04:57:14.216Z,18.10
2019-04-16T04:59:52.271Z,15.65
2019-04-16T05:02:24.212Z,12.18
2019-04-16T05:05:24.731Z,15.13
2019-04-16T05:07:52.729Z,15.55
2019-04-16T05:10:24.957Z,14.95
2019-04-16T05:12:57.031Z,14.43
2019-04-16T05:15:29.449Z,12.37
2019-04-16T05:18:02.130Z,13.22
2019-04-16T05:20:34.013Z,10.45
2019-04-16T05:23:08.963Z,12.93
2019-04-16T05:25:41.417Z,10.20
2019-04-16T05:28:13.537Z,11.70
2019-04-16T05:30:52.185Z,10.78
2019-04-16T05:33:25.032Z,11.07
2019-04-16T05:36:04.221Z,14.87
2019-04-16T05:38:36.220Z,10.40
2019-04-16T05:41:22.298Z,12.87
2019-04-16T05:43:52.209Z,11.63
2019-04-16T05:46:24.271Z,16.63
2019-04-16T05:48:56.263Z,14.80
2019-04-16T05:51:42.348Z,12.10
2019-04-16T05:54:34.328Z,12.43
2019-04-16T05:57:08.236Z,11.10
2019-04-16T05:59:40.226Z,12.73
2019-04-16T06:02:18.709Z,15.33
2019-04-16T06:04:55.617Z,11.47
2019-04-16T06:07:24.816Z,14.23
2019-04-16T06:09:56.744Z,10.83
2019-04-16T06:12:39.592Z,11.17
2019-04-16T06:15:22.448Z,14.27
2019-04-16T06:18:18.291Z,12.23
2019-04-16T06:20:55.816Z,14.30
2019-04-16T06:23:38.798Z,11.93
2019-04-16T06:26:30.088Z,11.33
2019-04-16T06:29:18.331Z,18.37
2019-04-16T06:32:01.829Z,11.57
2019-04-16T06:34:53.173Z,12.40
2019-04-16T06:38:00.343Z,16.90
2019-04-16T06:40:38.741Z,12.27
2019-04-16T06:43:26.277Z,12.80
2019-04-16T06:46:26.180Z,14.17
2019-04-16T06:49:19.786Z,12.73
2019-04-16T06:52:03.589Z,13.20
2019-04-16T06:54:53.176Z,11.33
2019-04-16T06:57:43.068Z,12.07
2019-04-16T07:00:35.034Z,12.53
2019-04-16T07:03:40.619Z,11.87
2019-04-16T07:06:29.948Z,14.03
2019-04-16T07:09:25.619Z,16.50
2019-04-16T07:11:56.854Z,58.40
2019-04-16T07:14:28.618Z,25.27
2019-04-16T07:17:00.823Z,12.43
2019-04-16T07:19:32.553Z,14.13
2019-04-16T07:22:05.349Z,11.20
2019-04-16T07:24:41.278Z,10.83
2019-04-16T07:27:19.612Z,13.03
2019-04-16T07:30:05.150Z,11.63
2019-04-16T07:32:47.715Z,12.30
2019-04-16T07:35:38.365Z,10.97
2019-04-16T07:38:16.682Z,10.47
2019-04-16T07:41:10.768Z,10.43
2019-04-16T07:44:04.489Z,10.33
2019-04-16T07:47:04.585Z,10.83
2019-04-16T07:50:01.502Z,10.07
2019-04-16T07:52:49.409Z,10.53
2019-04-16T07:55:39.645Z,9.90
2019-04-16T07:58:12.446Z,10.30
2019-04-16T08:01:01.834Z,9.10
2019-04-16T08:03:33.701Z,9.70
2019-04-16T08:06:05.744Z,10.80
2019-04-16T08:08:37.489Z,10.73
2019-04-16T08:11:23.023Z,9.57
2019-04-16T08:13:54.499Z,14.53
2019-04-16T08:16:30.035Z,44.67
2019-04-16T08:19:02.212Z,41.93
2019-04-16T08:21:37.408Z,32.33
2019-04-16T08:24:14.727Z,116.17
2019-04-16T08:26:47.012Z,33.60
2019-04-16T08:29:19.144Z,50.77
2019-04-16T08:31:57.079Z,11.80
2019-04-16T08:34:30.189Z,12.37
2019-04-16T08:37:10.316Z,10.47
2019-04-16T08:39:42.062Z,10.30
2019-04-16T08:42:24.158Z,9.93
2019-04-16T08:44:53.298Z,8.73
2019-04-16T08:47:32.314Z,9.00
2019-04-16T08:50:06.142Z,8.57
2019-04-16T08:52:41.859Z,8.80
2019-04-16T08:55:12.697Z,9.20
2019-04-16T08:57:46.900Z,8.67
2019-04-16T09:00:19.582Z,9.50
2019-04-16T09:03:04.293Z,8.80
2019-04-16T09:05:41.334Z,12.43
2019-04-16T09:08:28.015Z,9.97
2019-04-16T09:11:03.389Z,14.57
2019-04-16T09:13:41.131Z,9.93
2019-04-16T09:16:12.853Z,27.40
2019-04-16T09:18:53.133Z,10.40
2019-04-16T09:21:36.736Z,10.03
2019-04-16T09:24:25.527Z,10.50
2019-04-16T09:27:07.009Z,9.47
2019-04-16T09:30:00.873Z,11.10
2019-04-16T09:32:48.976Z,11.23
2019-04-16T09:35:28.281Z,10.80
2019-04-16T09:38:22.096Z,12.00
2019-04-16T09:41:16.881Z,11.57
2019-04-16T09:43:53.826Z,13.60
2019-04-16T09:46:48.816Z,32.37
2019-04-16T09:48:56.959Z,63.43
2019-04-16T09:51:30.835Z,39.77
2019-04-16T09:54:03.358Z,13.87
2019-04-16T09:56:35.503Z,10.60
2019-04-16T09:59:18.966Z,13.47
2019-04-16T10:01:56.517Z,11.67
2019-04-16T10:04:28.399Z,12.87
2019-04-16T10:07:00.228Z,11.30
2019-04-16T10:09:34.350Z,13.03
2019-04-16T10:12:07.759Z,11.80
2019-04-16T10:14:40.614Z,12.40
2019-04-16T10:17:12.228Z,44.53
2019-04-16T10:19:44.068Z,63.87
2019-04-16T10:22:16.244Z,11.87
2019-04-16T10:25:06.104Z,11.73
2019-04-16T10:27:42.898Z,11.30
2019-04-16T10:30:51.698Z,11.20
2019-04-16T10:33:23.761Z,11.03
2019-04-16T10:36:04.668Z,10.97
2019-04-16T10:38:56.404Z,10.43
2019-04-16T10:41:49.901Z,9.77
2019-04-16T10:44:43.260Z,19.80
2019-04-16T10:47:43.061Z,9.80
2019-04-16T10:50:28.129Z,11.20
2019-04-16T10:53:07.907Z,8.67
2019-04-16T10:55:50.667Z,8.67
2019-04-16T10:58:40.036Z,7.70
2019-04-16T11:01:21.503Z,7.67
2019-04-16T11:04:17.706Z,15.30
2019-04-16T11:06:51.133Z,7.03
2019-04-16T11:09:22.588Z,8.13
2019-04-16T11:11:54.523Z,7.93
2019-04-16T11:14:26.463Z,6.90
2019-04-16T11:16:58.479Z,8.83
2019-04-16T11:19:30.176Z,7.27
2019-04-16T11:22:04.018Z,9.07
2019-04-16T11:24:36.521Z,7.37
2019-04-16T11:27:09.779Z,7.83
2019-04-16T11:29:42.715Z,10.50
2019-04-16T11:32:16.480Z,8.60
2019-04-16T11:34:49.363Z,9.40
2019-04-16T11:37:21.379Z,8.60
2019-04-16T11:39:53.542Z,9.33
2019-04-16T11:42:25.636Z,8.40
2019-04-16T11:44:57.452Z,18.37
2019-04-16T11:47:33.799Z,10.00
2019-04-16T11:50:03.289Z,8.10
2019-04-16T11:52:35.499Z,31.90
2019-04-16T11:55:07.385Z,13.23
2019-04-16T11:57:39.282Z,9.47
2019-04-16T12:00:14.462Z,9.93
2019-04-16T12:03:04.657Z,8.63
2019-04-16T12:05:54.469Z,8.43
2019-04-16T12:08:54.759Z,9.20
2019-04-16T12:11:45.591Z,8.63
2019-04-16T12:14:45.542Z,9.00
2019-04-16T12:17:29.671Z,7.80
2019-04-16T12:20:32.680Z,6.63
2019-04-16T12:23:16.418Z,5.83
2019-04-16T12:26:10.890Z,5.27
2019-04-16T12:29:11.695Z,5.40
2019-04-16T12:32:20.553Z,6.80
2019-04-16T12:35:18.658Z,8.50
2019-04-16T12:38:17.977Z,6.07
2019-04-16T12:40:57.694Z,3.70
2019-04-16T12:43:36.391Z,5.67
2019-04-16T12:46:22.761Z,16.13
2019-04-16T12:49:19.520Z,7.37
2019-04-16T12:51:55.456Z,8.07
2019-04-16T12:54:44.869Z,6.33
2019-04-16T12:57:30.048Z,41.80
2019-04-16T13:00:26.032Z,6.10
2019-04-16T13:03:16.368Z,7.47
2019-04-16T13:06:12.537Z,7.40
2019-04-16T13:09:02.926Z,11.70
2019-04-16T13:11:58.969Z,61.37
2019-04-16T13:14:59.833Z,41.30
2019-04-16T13:17:47.908Z,12.60
2019-04-16T13:20:38.323Z,6.57
2019-04-16T13:23:30.014Z,6.23
2019-04-16T13:26:11.817Z,6.70
2019-04-16T13:28:42.163Z,6.60
2019-04-16T13:31:14.938Z,7.00
2019-04-16T13:33:47.206Z,7.33
2019-04-16T13:36:20.091Z,9.43
2019-04-16T13:38:57.519Z,6.17
2019-04-16T13:41:30.451Z,8.60
2019-04-16T13:44:09.245Z,10.67
2019-04-16T13:46:41.711Z,8.47
2019-04-16T13:49:33.993Z,11.07
2019-04-16T13:52:06.246Z,47.00
2019-04-16T13:54:56.151Z,15.27
2019-04-16T13:57:31.617Z,10.63
2019-04-16T14:00:12.983Z,10.23
2019-04-16T14:02:56.370Z,9.67
2019-04-16T14:05:28.960Z,10.63
2019-04-16T14:08:05.539Z,7.83
2019-04-16T14:10:37.969Z,8.93
2019-04-16T14:13:18.147Z,11.13
2019-04-16T14:15:50.106Z,18.20
2019-04-16T14:18:26.101Z,8.63
2019-04-16T14:20:58.424Z,9.37
2019-04-16T14:23:38.545Z,11.07
2019-04-16T14:26:10.419Z,14.70
2019-04-16T14:28:56.729Z,12.67
2019-04-16T14:31:28.211Z,11.47
2019-04-16T14:34:12.307Z,11.60
2019-04-16T14:36:45.109Z,12.23
2019-04-16T14:39:27.164Z,10.70
2019-04-16T14:41:58.931Z,13.27
2019-04-16T14:44:37.060Z,11.13
2019-04-16T14:47:08.971Z,10.77
2019-04-16T14:49:40.723Z,12.07
2019-04-16T14:52:12.669Z,15.63
2019-04-16T14:55:06.783Z,14.63
2019-04-16T14:57:57.690Z,12.47
2019-04-16T15:00:57.374Z,13.33
2019-04-16T15:03:43.289Z,11.40
2019-04-16T15:06:36.532Z,13.20
2019-04-16T15:09:20.118Z,46.80
2019-04-16T15:12:19.785Z,12.00
2019-04-16T15:15:08.781Z,14.00
2019-04-16T15:18:00.831Z,26.73
2019-04-16T15:21:03.162Z,22.27
2019-04-16T15:23:52.882Z,13.53
2019-04-16T15:26:43.415Z,11.90
2019-04-16T15:29:20.839Z,16.97
2019-04-16T15:32:05.554Z,17.63
2019-04-16T15:34:43.022Z,15.60
2019-04-16T15:37:25.855Z,15.13
2019-04-16T15:40:06.968Z,16.53
2019-04-16T15:42:53.252Z,15.80
2019-04-16T15:45:44.264Z,15.97
2019-04-16T15:48:38.143Z,17.23
2019-04-16T15:51:31.946Z,15.50
2019-04-16T15:54:24.471Z,15.40
2019-04-16T15:57:21.269Z,16.27
2019-04-16T15:59:59.707Z,17.30
2019-04-16T16:03:06.160Z,17.40
2019-04-16T16:05:44.201Z,25.37
2019-04-16T16:08:26.896Z,22.37
2019-04-16T16:11:02.476Z,23.73
2019-04-16T16:13:35.112Z,31.17
2019-04-16T16:16:10.120Z,29.50
2019-04-16T16:18:41.387Z,23.43
2019-04-16T16:21:14.195Z,29.30
2019-04-16T16:23:46.916Z,24.03
2019-04-16T16:26:19.894Z,17.03
2019-04-16T16:28:51.988Z,18.87
2019-04-16T16:31:24.717Z,20.07
2019-04-16T16:33:58.899Z,23.33
2019-04-16T16:36:30.735Z,21.70
2019-04-16T16:39:03.658Z,22.10
2019-04-16T16:41:35.771Z,19.10
2019-04-16T16:44:07.809Z,46.77
2019-04-16T16:46:58.395Z,33.13
2019-04-16T16:49:32.480Z,14.70
2019-04-16T16:52:33.320Z,15.23
2019-04-16T16:55:16.362Z,17.10
2019-04-16T16:57:53.581Z,17.43
2019-04-16T17:00:43.860Z,18.43
2019-04-16T17:03:23.915Z,18.07
2019-04-16T17:05:57.074Z,17.83
2019-04-16T17:08:31.013Z,18.23
2019-04-16T17:11:16.291Z,26.47
2019-04-16T17:13:37.167Z,18.50
2019-04-16T17:16:13.255Z,18.70
2019-04-16T17:18:45.407Z,15.47
2019-04-16T17:21:17.348Z,17.43
2019-04-16T17:23:49.823Z,16.73
2019-04-16T17:26:22.940Z,16.57
2019-04-16T17:28:55.443Z,17.93
2019-04-16T17:31:27.905Z,17.43
2019-04-16T17:34:02.153Z,25.23
2019-04-16T17:36:37.885Z,26.70
2019-04-16T17:39:11.644Z,16.57
2019-04-16T17:41:50.021Z,20.43
2019-04-16T17:44:47.169Z,16.00
2019-04-16T17:47:40.940Z,20.33
2019-04-16T17:50:39.339Z,19.03
2019-04-16T17:53:26.217Z,16.27
2019-04-16T17:56:21.039Z,20.90
2019-04-16T17:58:59.343Z,26.90
2019-04-16T18:01:50.397Z,24.63
2019-04-16T18:04:44.481Z,19.87
2019-04-16T18:07:36.650Z,13.03
2019-04-16T18:10:22.787Z,19.43
2019-04-16T18:13:34.089Z,26.00
2019-04-16T18:16:23.714Z,59.10
2019-04-16T18:19:13.140Z,25.10
2019-04-16T18:21:52.163Z,12.90
2019-04-16T18:24:42.716Z,11.80
2019-04-16T18:27:37.763Z,51.93
2019-04-16T18:30:38.841Z,18.43
2019-04-16T18:33:30.441Z,33.10
2019-04-16T18:36:14.185Z,24.33
2019-04-16T18:39:05.248Z,16.60
2019-04-16T18:41:43.751Z,15.53
2019-04-16T18:44:33.602Z,13.00
2019-04-16T18:47:30.912Z,13.60
2019-04-16T18:50:06.421Z,13.03
2019-04-16T18:52:38.841Z,13.40
2019-04-16T18:55:11.981Z,16.03
2019-04-16T18:57:47.919Z,14.70
2019-04-16T19:00:45.367Z,15.20
2019-04-16T19:03:18.190Z,13.27
2019-04-16T19:05:50.206Z,11.80
2019-04-16T19:08:23.329Z,11.70
2019-04-16T19:10:55.364Z,10.73
2019-04-16T19:13:27.824Z,10.33
2019-04-16T19:16:01.927Z,10.77
2019-04-16T19:18:34.817Z,11.73
2019-04-16T19:21:11.927Z,11.80
2019-04-16T19:23:41.698Z,11.40
2019-04-16T19:26:14.182Z,11.73
2019-04-16T19:28:55.477Z,11.83
2019-04-16T19:31:27.971Z,11.83
2019-04-16T19:34:00.457Z,11.30
2019-04-16T19:36:32.782Z,11.40
2019-04-16T19:39:15.412Z,12.53
2019-04-16T19:41:47.647Z,12.20
2019-04-16T19:44:20.032Z,12.63
2019-04-16T19:46:54.243Z,12.43
2019-04-16T19:49:44.166Z,12.60
2019-04-16T19:52:17.278Z,14.97
2019-04-16T19:54:50.125Z,16.23
2019-04-16T19:57:22.868Z,13.87
2019-04-16T19:59:56.796Z,14.33
2019-04-16T20:02:32.978Z,15.27
2019-04-16T20:05:05.485Z,13.60
2019-04-16T20:07:37.815Z,13.63
2019-04-16T20:10:16.650Z,14.53
2019-04-16T20:12:48.782Z,21.43
2019-04-16T20:15:21.641Z,19.53
2019-04-16T20:17:54.084Z,20.00
2019-04-16T20:20:31.485Z,17.37
2019-04-16T20:23:03.951Z,22.43
2019-04-16T20:25:42.867Z,21.20
2019-04-16T20:28:16.280Z,21.10
2019-04-16T20:31:03.245Z,24.93
2019-04-16T20:33:33.356Z,29.87
2019-04-16T20:36:08.802Z,26.77
2019-04-16T20:38:46.270Z,20.03
2019-04-16T20:41:18.982Z,19.90
2019-04-16T20:43:51.022Z,21.30
2019-04-16T20:46:29.452Z,25.70
2019-04-16T20:49:09.624Z,23.73
2019-04-16T20:51:39.257Z,24.57
2019-04-16T20:54:13.741Z,20.70
2019-04-16T20:56:53.271Z,21.17
2019-04-16T20:59:24.296Z,17.80
2019-04-16T21:01:59.628Z,18.07
2019-04-16T21:04:32.333Z,16.30
2019-04-16T21:07:14.347Z,18.17
2019-04-16T21:09:43.706Z,18.60
2019-04-16T21:12:17.881Z,17.60
2019-04-16T21:14:50.938Z,18.80
2019-04-16T21:17:32.054Z,17.60
2019-04-16T21:20:06.085Z,17.10
2019-04-16T21:22:41.483Z,17.77
2019-04-16T21:25:13.982Z,19.17
2019-04-16T21:28:07.862Z,17.00
2019-04-16T21:30:43.322Z,16.67
2019-04-16T21:33:23.904Z,17.67
2019-04-16T21:36:03.069Z,15.10
2019-04-16T21:38:49.975Z,29.37
2019-04-16T21:41:22.318Z,20.03
2019-04-16T21:43:54.496Z,18.80
2019-04-16T21:46:26.827Z,19.27
2019-04-16T21:49:00.876Z,17.03
2019-04-16T21:51:33.108Z,17.80
2019-04-16T21:54:06.856Z,16.63
2019-04-16T21:56:39.747Z,21.87
2019-04-16T21:59:12.750Z,17.53
2019-04-16T22:01:47.248Z,22.90
2019-04-16T22:04:19.418Z,21.20
2019-04-16T22:06:52.619Z,20.07
2019-04-16T22:09:25.127Z,18.17
2019-04-16T22:11:57.417Z,18.47
2019-04-16T22:14:29.597Z,17.70
2019-04-16T22:17:04.181Z,18.27
2019-04-16T22:19:35.377Z,16.27
2019-04-16T22:22:07.707Z,15.97
2019-04-16T22:24:39.687Z,18.53
2019-04-16T22:27:11.833Z,16.87
2019-04-16T22:29:56.434Z,15.17
2019-04-16T22:32:30.854Z,15.37
2019-04-16T22:35:02.377Z,16.47
2019-04-16T22:37:34.380Z,21.50
2019-04-16T22:40:29.288Z,22.77
2019-04-16T22:43:19.099Z,35.13
2019-04-16T22:46:05.393Z,26.80
2019-04-16T22:48:37.116Z,59.37
2019-04-16T22:51:10.117Z,101.87
2019-04-16T22:53:42.491Z,65.20
2019-04-16T22:56:14.074Z,35.83
2019-04-16T22:58:49.592Z,31.50
2019-04-16T23:01:23.280Z,107.17
2019-04-16T23:03:55.233Z,162.20
2019-04-16T23:06:27.321Z,73.13
2019-04-16T23:08:59.497Z,132.20
2019-04-16T23:11:31.285Z,33.20
2019-04-16T23:14:03.998Z,79.43
2019-04-16T23:16:36.073Z,41.37
2019-04-16T23:19:07.981Z,102.67
2019-04-16T23:21:42.542Z,29.90
2019-04-16T23:24:13.473Z,129.03
2019-04-16T23:26:45.484Z,75.87
2019-04-16T23:29:17.575Z,21.63
2019-04-16T23:31:57.955Z,21.33
2019-04-16T23:34:29.876Z,154.53
2019-04-16T23:37:04.905Z,123.70
2019-04-16T23:39:39.804Z,110.07
2019-04-16T23:42:18.846Z,121.20
2019-04-16T23:45:07.782Z,121.20
2019-04-16T23:48:15.500Z,118.80
2019-04-16T23:50:53.485Z,76.00
2019-04-16T23:53:53.786Z,145.23
2019-04-16T23:56:32.546Z,150.83
2019-04-16T23:59:15.137Z,90.23
